Sti Coral — V7WN5 — position and weather

sailwx.info

Track history (hours):
 
Tides and Currents Weather Stations Pressure Air Temp Water Temp Dewpoint Dewpoint Depression Visibility Wind Speed Wind Dir Waves Ship Positions

Sti Coral

Last reported at 2017-May-13 19:17 UTC. Time now 2017-May-29 13:14 UTC.
Position N 39°10' W 075°16'.
Warning: this ship's position is 15 days out of date.

Length 183 m; draft 10.8 m.

Type: Ship (hazmat cat C). MMSI: 538004346.

Date/timePositionNaut miles runAvg speedWind from/ knotsBaromVisibWave heightAir tempDewpointWater temp
2017-May-13 19:17N 39°10' W 075°16'514.9
2017-May-13 18:58N 39°15' W 075°19'714.5
2017-May-13 18:30N 39°20' W 075°25'713.6
2017-May-13 18:00N 39°25' W 075°31'611.7
2017-May-13 17:30N 39°30' W 075°33'4 7.6
2017-May-13 17:00N 39°33' W 075°36'611.5
2017-May-13 16:30N 39°33' W 075°43'611.1
2017-May-13 16:00N 39°32' W 075°50'612.2
2017-May-13 15:30N 39°29' W 075°57'612.8
2017-May-13 15:00N 39°24' W 076°03'  
Track history (hours):
 
Tides and Currents Weather Stations Pressure Air Temp Water Temp Dewpoint Dewpoint Depression Visibility Wind Speed Wind Dir Waves Ship Positions

Sti Coral

Last reported at 2017-May-13 19:17 UTC. Time now 2017-May-29 13:14 UTC.
Position N 39°10' W 075°16'.
Warning: this ship's position is 15 days out of date.

Length 183 m; draft 10.8 m.

Type: Ship (hazmat cat C). MMSI: 538004346.

Date/timePositionNaut miles runAvg speedWind from/ knotsBaromVisibWave heightAir tempDewpointWater temp
2017-May-13 19:17N 39°10' W 075°16'514.9
2017-May-13 18:58N 39°15' W 075°19'714.5
2017-May-13 18:30N 39°20' W 075°25'713.6
2017-May-13 18:00N 39°25' W 075°31'611.7
2017-May-13 17:30N 39°30' W 075°33'4 7.6
2017-May-13 17:00N 39°33' W 075°36'611.5
2017-May-13 16:30N 39°33' W 075°43'611.1
2017-May-13 16:00N 39°32' W 075°50'612.2
2017-May-13 15:30N 39°29' W 075°57'612.8
2017-May-13 15:00N 39°24' W 076°03'  

Dump ship's entire track history